createdAt,value
2019-02-16T00:01:20.341Z,71.97
2019-02-16T00:06:22.528Z,72.23
2019-02-16T00:11:24.127Z,77.90
2019-02-16T00:16:25.881Z,80.57
2019-02-16T00:21:27.589Z,67.03
2019-02-16T00:26:29.320Z,71.70
2019-02-16T00:31:31.091Z,68.10
2019-02-16T00:36:32.677Z,65.77
2019-02-16T00:41:34.516Z,63.17
2019-02-16T00:46:36.174Z,66.53
2019-02-16T00:51:37.729Z,63.43
2019-02-16T00:56:39.296Z,68.90
2019-02-16T01:01:40.943Z,53.50
2019-02-16T01:06:42.489Z,60.60
2019-02-16T01:11:44.097Z,69.67
2019-02-16T01:16:45.658Z,77.97
2019-02-16T01:21:47.348Z,65.90
2019-02-16T01:26:48.964Z,61.83
2019-02-16T01:31:50.552Z,60.70
2019-02-16T01:36:52.113Z,55.70
2019-02-16T01:41:53.754Z,60.40
2019-02-16T01:46:55.308Z,50.30
2019-02-16T01:51:56.870Z,54.97
2019-02-16T01:56:58.434Z,45.90
2019-02-16T02:02:00.011Z,45.40
2019-02-16T02:07:02.200Z,50.20
2019-02-16T02:12:03.878Z,45.97
2019-02-16T02:17:05.432Z,44.50
2019-02-16T02:22:07.072Z,41.70
2019-02-16T02:27:08.816Z,44.93
2019-02-16T02:32:10.572Z,45.03
2019-02-16T02:37:12.139Z,42.87
2019-02-16T02:42:13.697Z,40.17
2019-02-16T02:47:15.270Z,38.10
2019-02-16T02:52:16.885Z,37.83
2019-02-16T02:57:18.440Z,39.37
2019-02-16T03:02:20.000Z,38.40
2019-02-16T03:07:21.853Z,39.00
2019-02-16T03:12:23.409Z,43.27
2019-02-16T03:17:24.964Z,44.73
2019-02-16T03:23:11.073Z,46.97
2019-02-16T03:28:36.303Z,43.93
2019-02-16T03:34:04.137Z,43.80
2019-02-16T03:39:10.695Z,40.53
2019-02-16T03:44:12.384Z,50.13
2019-02-16T03:49:13.946Z,43.93
2019-02-16T03:54:15.515Z,49.77
2019-02-16T03:59:17.117Z,43.57
2019-02-16T04:04:18.667Z,48.40
2019-02-16T04:09:20.224Z,52.30
2019-02-16T04:14:21.791Z,41.63
2019-02-16T04:19:23.354Z,37.90
2019-02-16T04:24:24.996Z,43.97
2019-02-16T04:29:26.723Z,39.60
2019-02-16T04:34:28.308Z,45.00
2019-02-16T04:39:29.967Z,47.67
2019-02-16T04:44:31.634Z,40.60
2019-02-16T04:49:33.237Z,37.93
2019-02-16T04:54:34.906Z,34.87
2019-02-16T04:59:36.512Z,36.27
2019-02-16T05:04:38.273Z,33.53
2019-02-16T05:09:39.824Z,34.77
2019-02-16T05:14:41.373Z,30.57
2019-02-16T05:19:42.983Z,26.50
2019-02-16T05:24:44.537Z,24.30
2019-02-16T05:29:46.241Z,28.13
2019-02-16T05:34:47.785Z,29.80
2019-02-16T05:39:49.370Z,40.03
2019-02-16T05:44:51.162Z,35.80
2019-02-16T05:49:52.783Z,37.57
2019-02-16T05:54:54.337Z,33.93
2019-02-16T05:59:55.894Z,37.97
2019-02-16T06:04:57.700Z,41.60
2019-02-16T06:09:59.361Z,43.40
2019-02-16T06:15:00.929Z,38.60
2019-02-16T06:20:06.556Z,43.10
2019-02-16T06:25:08.218Z,31.63
2019-02-16T06:30:10.049Z,37.43
2019-02-16T06:35:13.837Z,35.37
2019-02-16T06:40:15.403Z,39.20
2019-02-16T06:45:17.010Z,35.63
2019-02-16T06:50:18.625Z,36.03
2019-02-16T06:55:20.495Z,32.90
2019-02-16T07:00:24.209Z,38.40
2019-02-16T07:05:25.800Z,36.97
2019-02-16T07:10:27.359Z,38.93
2019-02-16T07:15:29.121Z,43.07
2019-02-16T07:20:30.753Z,36.97
2019-02-16T07:25:32.312Z,32.37
2019-02-16T07:30:33.929Z,43.50
2019-02-16T07:35:35.637Z,40.23
2019-02-16T07:40:37.605Z,43.17
2019-02-16T07:45:42.247Z,47.60
2019-02-16T07:50:46.816Z,182.23
2019-02-16T07:55:54.009Z,46.00
2019-02-16T08:01:06.429Z,50.97
2019-02-16T08:06:12.539Z,53.87
2019-02-16T08:11:16.094Z,50.70
2019-02-16T08:16:17.713Z,55.50
2019-02-16T08:21:24.095Z,60.87
2019-02-16T08:26:39.304Z,77.87
2019-02-16T08:31:42.837Z,95.73
2019-02-16T08:36:46.314Z,122.87
2019-02-16T08:41:55.766Z,117.90
2019-02-16T08:47:16.049Z,104.27
2019-02-16T08:52:34.728Z,114.50
2019-02-16T08:57:39.354Z,93.70
2019-02-16T09:02:42.828Z,63.37
2019-02-16T09:07:46.295Z,43.10
2019-02-16T09:12:49.766Z,44.40
2019-02-16T09:17:59.115Z,36.90
2019-02-16T09:23:06.984Z,34.20
2019-02-16T09:28:11.177Z,45.30
2019-02-16T09:33:26.721Z,42.10
2019-02-16T09:38:28.279Z,36.77
2019-02-16T09:43:29.887Z,34.63
2019-02-16T09:48:36.120Z,29.23
2019-02-16T09:53:45.469Z,28.33
2019-02-16T09:58:51.801Z,34.27
2019-02-16T10:03:58.152Z,28.93
2019-02-16T10:09:04.510Z,33.27
2019-02-16T10:14:16.309Z,32.00
2019-02-16T10:19:23.933Z,34.37
2019-02-16T10:24:34.223Z,45.13
2019-02-16T10:29:46.637Z,49.57
2019-02-16T10:34:48.256Z,51.97
2019-02-16T10:40:09.783Z,68.80
2019-02-16T10:45:19.981Z,67.70
2019-02-16T10:50:23.446Z,55.30
2019-02-16T10:55:42.030Z,61.57
2019-02-16T11:00:45.508Z,49.10
2019-02-16T11:05:48.976Z,35.83
2019-02-16T11:10:52.442Z,30.37
2019-02-16T11:15:58.648Z,26.03
2019-02-16T11:21:04.712Z,25.97
2019-02-16T11:26:11.171Z,19.60
2019-02-16T11:31:26.725Z,24.37
2019-02-16T11:36:30.260Z,24.90
2019-02-16T11:41:33.778Z,28.70
2019-02-16T11:46:52.511Z,20.53
2019-02-16T11:52:00.040Z,20.10
2019-02-16T11:57:12.672Z,24.10
2019-02-16T12:02:16.160Z,19.10
2019-02-16T12:07:25.277Z,25.80
2019-02-16T12:12:46.762Z,21.43
2019-02-16T12:18:07.085Z,33.50
2019-02-16T12:23:23.201Z,24.87
2019-02-16T12:28:26.672Z,27.50
2019-02-16T12:33:32.960Z,22.83
2019-02-16T12:38:45.621Z,18.77
2019-02-16T12:44:01.384Z,17.87
2019-02-16T12:49:17.087Z,18.47
2019-02-16T12:54:35.749Z,20.33
2019-02-16T12:59:48.223Z,21.97
2019-02-16T13:05:08.386Z,25.70
2019-02-16T13:10:11.847Z,25.53
2019-02-16T13:15:17.937Z,28.93
2019-02-16T13:20:24.240Z,28.20
2019-02-16T13:25:27.707Z,30.37
2019-02-16T13:30:34.118Z,33.10
2019-02-16T13:35:47.693Z,30.20
2019-02-16T13:40:53.858Z,33.17
2019-02-16T13:45:59.964Z,31.27
2019-02-16T13:51:03.505Z,33.67
2019-02-16T13:56:18.637Z,24.03
2019-02-16T14:01:22.103Z,29.70
2019-02-16T14:06:44.037Z,23.27
2019-02-16T14:11:53.136Z,28.47
2019-02-16T14:17:09.882Z,30.23
2019-02-16T14:22:11.621Z,28.83
2019-02-16T14:27:13.185Z,29.77
2019-02-16T14:32:14.759Z,25.07
2019-02-16T14:37:20.863Z,25.97
2019-02-16T14:42:22.493Z,30.97
2019-02-16T14:47:24.100Z,35.93
2019-02-16T14:52:25.729Z,29.77
2019-02-16T14:57:27.294Z,35.47
2019-02-16T15:02:29.128Z,29.63
2019-02-16T15:07:30.690Z,29.90
2019-02-16T15:12:32.275Z,32.43
2019-02-16T15:17:33.828Z,37.40
2019-02-16T15:22:35.459Z,36.93
2019-02-16T15:27:37.014Z,49.80
2019-02-16T15:32:40.589Z,50.70
2019-02-16T15:37:42.672Z,54.40
2019-02-16T15:42:44.652Z,52.33
2019-02-16T15:47:46.261Z,49.10
2019-02-16T15:52:47.906Z,47.47
2019-02-16T15:57:49.489Z,51.03
2019-02-16T16:02:51.064Z,44.43
2019-02-16T16:07:54.525Z,52.40
2019-02-16T16:13:01.991Z,60.30
2019-02-16T16:18:17.917Z,85.03
2019-02-16T16:23:39.908Z,83.00
2019-02-16T16:29:00.533Z,78.13
2019-02-16T16:34:16.019Z,89.13
2019-02-16T16:39:19.486Z,112.23
2019-02-16T16:44:25.869Z,123.77
2019-02-16T16:49:38.499Z,128.70
2019-02-16T16:54:41.965Z,124.57
2019-02-16T16:59:49.500Z,128.53
2019-02-16T17:05:05.016Z,126.23
2019-02-16T17:10:11.700Z,137.87
2019-02-16T17:15:16.450Z,162.50
2019-02-16T17:20:23.049Z,158.73
2019-02-16T17:25:35.567Z,256.17
2019-02-16T17:30:41.784Z,317.33
2019-02-16T17:35:51.333Z,273.43
2019-02-16T17:41:09.751Z,150.40
2019-02-16T17:46:30.497Z,294.27
2019-02-16T17:51:50.733Z,291.77
2019-02-16T17:56:55.354Z,188.43
2019-02-16T18:02:08.095Z,227.20
2019-02-16T18:07:09.661Z,458.67
2019-02-16T18:12:11.246Z,392.70
2019-02-16T18:17:17.497Z,180.13
2019-02-16T18:22:21.802Z,454.77
2019-02-16T18:27:28.199Z,308.50
2019-02-16T18:32:32.931Z,870.20
2019-02-16T18:37:42.139Z,345.83
2019-02-16T18:43:02.609Z,365.00
2019-02-16T18:48:08.830Z,204.87
2019-02-16T18:53:18.365Z,212.20
2019-02-16T18:58:31.137Z,112.00
2019-02-16T19:03:34.609Z,108.27
2019-02-16T19:08:38.063Z,119.87
2019-02-16T19:13:47.487Z,150.57
2019-02-16T19:18:51.301Z,271.50
2019-02-16T19:24:03.692Z,323.23
2019-02-16T19:29:14.693Z,271.60
2019-02-16T19:34:16.255Z,218.83
2019-02-16T19:39:22.602Z,373.40
2019-02-16T19:44:24.233Z,223.50
2019-02-16T19:49:28.803Z,222.50
2019-02-16T19:54:35.168Z,190.43
2019-02-16T19:59:55.129Z,193.07
2019-02-16T20:05:16.875Z,396.07
2019-02-16T20:10:32.706Z,191.70
2019-02-16T20:15:46.198Z,308.70
2019-02-16T20:20:48.010Z,188.33
2019-02-16T20:25:53.809Z,214.87
2019-02-16T20:31:06.315Z,192.03
2019-02-16T20:36:26.020Z,201.93
2019-02-16T20:41:29.487Z,182.60
2019-02-16T20:46:44.946Z,197.20
2019-02-16T20:52:07.325Z,187.97
2019-02-16T20:57:11.762Z,568.20
2019-02-16T21:02:31.238Z,620.63
2019-02-16T21:07:51.568Z,218.07
2019-02-16T21:13:01.045Z,150.23
2019-02-16T21:18:20.044Z,104.27
2019-02-16T21:23:27.811Z,99.53
2019-02-16T21:28:37.145Z,102.23
2019-02-16T21:33:40.622Z,101.00
2019-02-16T21:38:48.030Z,99.93
2019-02-16T21:43:51.495Z,115.40
2019-02-16T21:48:55.005Z,126.57
2019-02-16T21:54:10.431Z,117.97
2019-02-16T21:59:19.502Z,109.47
2019-02-16T22:04:26.112Z,113.03
2019-02-16T22:09:29.686Z,108.73
2019-02-16T22:14:31.250Z,85.20
2019-02-16T22:19:32.811Z,92.57
2019-02-16T22:24:34.478Z,95.20
2019-02-16T22:29:36.042Z,587.47
2019-02-16T22:34:37.607Z,1770.03
2019-02-16T22:39:39.168Z,938.93
2019-02-16T22:44:40.723Z,1999.90
2019-02-16T22:49:42.318Z,207.47
2019-02-16T22:54:43.957Z,567.87
2019-02-16T22:59:45.817Z,197.50
2019-02-16T23:04:47.377Z,322.30
2019-02-16T23:09:48.968Z,255.63
2019-02-16T23:14:50.776Z,229.23
2019-02-16T23:19:52.603Z,118.43
2019-02-16T23:24:54.972Z,146.83
2019-02-16T23:29:57.652Z,114.20
2019-02-16T23:34:59.525Z,118.37
2019-02-16T23:40:01.081Z,184.67
2019-02-16T23:45:06.863Z,121.43
2019-02-16T23:50:10.621Z,128.07
2019-02-16T23:55:12.241Z,166.00
